sensor_id;sensor_type;location;lat;lon;timestamp;P1;durP1;ratioP1;P2;durP2;ratioP2
31378;SDS011;61664;48.112;11.662;2023-04-15T00:01:35;1.70;;;1.60;;
31378;SDS011;61664;48.112;11.662;2023-04-15T00:04:03;1.92;;;1.45;;
31378;SDS011;61664;48.112;11.662;2023-04-15T00:06:30;1.60;;;1.50;;
31378;SDS011;61664;48.112;11.662;2023-04-15T00:08:57;3.17;;;1.90;;
31378;SDS011;61664;48.112;11.662;2023-04-15T00:11:24;2.85;;;1.67;;
31378;SDS011;61664;48.112;11.662;2023-04-15T00:13:51;2.00;;;1.65;;
31378;SDS011;61664;48.112;11.662;2023-04-15T00:16:18;2.78;;;1.42;;
31378;SDS011;61664;48.112;11.662;2023-04-15T00:18:45;1.95;;;1.77;;
31378;SDS011;61664;48.112;11.662;2023-04-15T00:21:12;1.70;;;1.60;;
31378;SDS011;61664;48.112;11.662;2023-04-15T00:23:38;2.58;;;1.92;;
31378;SDS011;61664;48.112;11.662;2023-04-15T00:26:06;2.92;;;1.52;;
31378;SDS011;61664;48.112;11.662;2023-04-15T00:28:32;3.10;;;1.80;;
31378;SDS011;61664;48.112;11.662;2023-04-15T00:30:59;4.13;;;2.40;;
31378;SDS011;61664;48.112;11.662;2023-04-15T00:33:26;2.92;;;1.90;;
31378;SDS011;61664;48.112;11.662;2023-04-15T00:35:53;2.40;;;1.88;;
31378;SDS011;61664;48.112;11.662;2023-04-15T00:38:20;2.13;;;1.70;;
31378;SDS011;61664;48.112;11.662;2023-04-15T00:40:47;4.40;;;2.20;;
31378;SDS011;61664;48.112;11.662;2023-04-15T00:43:14;2.05;;;1.95;;
31378;SDS011;61664;48.112;11.662;2023-04-15T00:45:41;3.35;;;2.25;;
31378;SDS011;61664;48.112;11.662;2023-04-15T00:48:08;1.63;;;1.52;;
31378;SDS011;61664;48.112;11.662;2023-04-15T00:50:36;2.88;;;2.38;;
31378;SDS011;61664;48.112;11.662;2023-04-15T00:53:03;3.42;;;2.13;;
31378;SDS011;61664;48.112;11.662;2023-04-15T00:55:30;1.67;;;1.58;;
31378;SDS011;61664;48.112;11.662;2023-04-15T00:57:57;2.25;;;2.05;;
31378;SDS011;61664;48.112;11.662;2023-04-15T01:00:24;1.73;;;1.58;;
31378;SDS011;61664;48.112;11.662;2023-04-15T01:02:51;2.78;;;1.77;;
31378;SDS011;61664;48.112;11.662;2023-04-15T01:05:19;3.92;;;1.80;;
31378;SDS011;61664;48.112;11.662;2023-04-15T01:07:46;2.25;;;1.55;;
31378;SDS011;61664;48.112;11.662;2023-04-15T01:10:13;2.53;;;2.05;;
31378;SDS011;61664;48.112;11.662;2023-04-15T01:12:41;1.98;;;1.60;;
31378;SDS011;61664;48.112;11.662;2023-04-15T01:15:08;2.03;;;1.85;;
31378;SDS011;61664;48.112;11.662;2023-04-15T01:17:36;2.22;;;1.35;;
31378;SDS011;61664;48.112;11.662;2023-04-15T01:20:04;2.67;;;2.40;;
31378;SDS011;61664;48.112;11.662;2023-04-15T01:22:35;3.63;;;2.85;;
31378;SDS011;61664;48.112;11.662;2023-04-15T01:25:05;2.35;;;1.98;;
31378;SDS011;61664;48.112;11.662;2023-04-15T01:27:43;2.10;;;1.95;;
31378;SDS011;61664;48.112;11.662;2023-04-15T01:30:10;3.25;;;2.00;;
31378;SDS011;61664;48.112;11.662;2023-04-15T01:32:37;2.25;;;2.03;;
31378;SDS011;61664;48.112;11.662;2023-04-15T01:35:04;3.63;;;2.28;;
31378;SDS011;61664;48.112;11.662;2023-04-15T01:37:32;2.55;;;2.17;;
31378;SDS011;61664;48.112;11.662;2023-04-15T01:39:59;3.72;;;2.00;;
31378;SDS011;61664;48.112;11.662;2023-04-15T01:42:26;2.95;;;2.20;;
31378;SDS011;61664;48.112;11.662;2023-04-15T01:44:53;4.47;;;2.58;;
31378;SDS011;61664;48.112;11.662;2023-04-15T01:47:20;3.55;;;2.38;;
31378;SDS011;61664;48.112;11.662;2023-04-15T01:49:47;2.25;;;2.05;;
31378;SDS011;61664;48.112;11.662;2023-04-15T01:52:14;3.30;;;2.15;;
31378;SDS011;61664;48.112;11.662;2023-04-15T01:54:41;2.58;;;2.38;;
31378;SDS011;61664;48.112;11.662;2023-04-15T01:57:08;5.10;;;2.70;;
31378;SDS011;61664;48.112;11.662;2023-04-15T01:59:35;2.25;;;2.00;;
31378;SDS011;61664;48.112;11.662;2023-04-15T02:02:02;2.50;;;2.30;;
31378;SDS011;61664;48.112;11.662;2023-04-15T02:04:30;3.08;;;2.60;;
31378;SDS011;61664;48.112;11.662;2023-04-15T02:06:57;4.25;;;1.98;;
31378;SDS011;61664;48.112;11.662;2023-04-15T02:09:24;2.70;;;2.50;;
31378;SDS011;61664;48.112;11.662;2023-04-15T02:11:55;3.05;;;2.30;;
31378;SDS011;61664;48.112;11.662;2023-04-15T02:14:22;2.17;;;1.98;;
31378;SDS011;61664;48.112;11.662;2023-04-15T02:16:48;2.58;;;2.30;;
31378;SDS011;61664;48.112;11.662;2023-04-15T02:19:16;5.45;;;2.72;;
31378;SDS011;61664;48.112;11.662;2023-04-15T02:21:43;1.92;;;1.83;;
31378;SDS011;61664;48.112;11.662;2023-04-15T02:24:10;4.28;;;2.90;;
31378;SDS011;61664;48.112;11.662;2023-04-15T02:26:37;2.40;;;2.20;;
31378;SDS011;61664;48.112;11.662;2023-04-15T02:29:04;4.03;;;2.30;;
31378;SDS011;61664;48.112;11.662;2023-04-15T02:31:31;2.40;;;2.20;;
31378;SDS011;61664;48.112;11.662;2023-04-15T02:36:30;2.85;;;2.60;;
31378;SDS011;61664;48.112;11.662;2023-04-15T02:38:57;3.08;;;2.50;;
31378;SDS011;61664;48.112;11.662;2023-04-15T02:41:24;2.88;;;2.55;;
31378;SDS011;61664;48.112;11.662;2023-04-15T02:43:53;2.78;;;2.55;;
31378;SDS011;61664;48.112;11.662;2023-04-15T02:46:20;4.07;;;2.97;;
31378;SDS011;61664;48.112;11.662;2023-04-15T02:48:48;2.67;;;2.47;;
31378;SDS011;61664;48.112;11.662;2023-04-15T02:51:17;2.47;;;2.28;;
31378;SDS011;61664;48.112;11.662;2023-04-15T02:53:46;2.40;;;2.20;;
31378;SDS011;61664;48.112;11.662;2023-04-15T02:56:14;3.80;;;2.97;;
31378;SDS011;61664;48.112;11.662;2023-04-15T02:58:43;2.63;;;2.42;;
31378;SDS011;61664;48.112;11.662;2023-04-15T03:01:11;2.70;;;2.50;;
31378;SDS011;61664;48.112;11.662;2023-04-15T03:03:38;3.60;;;2.05;;
31378;SDS011;61664;48.112;11.662;2023-04-15T03:06:05;4.38;;;2.90;;
31378;SDS011;61664;48.112;11.662;2023-04-15T03:08:34;4.43;;;2.88;;
31378;SDS011;61664;48.112;11.662;2023-04-15T03:11:01;2.72;;;2.20;;
31378;SDS011;61664;48.112;11.662;2023-04-15T03:13:29;8.27;;;2.72;;
31378;SDS011;61664;48.112;11.662;2023-04-15T03:15:56;3.97;;;2.40;;
31378;SDS011;61664;48.112;11.662;2023-04-15T03:18:23;3.70;;;2.45;;
31378;SDS011;61664;48.112;11.662;2023-04-15T03:20:50;4.30;;;2.83;;
31378;SDS011;61664;48.112;11.662;2023-04-15T03:23:16;3.35;;;2.83;;
31378;SDS011;61664;48.112;11.662;2023-04-15T03:25:43;3.95;;;2.85;;
31378;SDS011;61664;48.112;11.662;2023-04-15T03:28:11;3.60;;;2.42;;
31378;SDS011;61664;48.112;11.662;2023-04-15T03:30:37;2.67;;;2.30;;
31378;SDS011;61664;48.112;11.662;2023-04-15T03:33:04;2.85;;;2.65;;
31378;SDS011;61664;48.112;11.662;2023-04-15T03:35:32;2.70;;;2.50;;
31378;SDS011;61664;48.112;11.662;2023-04-15T03:37:59;3.33;;;2.20;;
31378;SDS011;61664;48.112;11.662;2023-04-15T03:40:26;2.65;;;2.30;;
31378;SDS011;61664;48.112;11.662;2023-04-15T03:42:53;1.98;;;1.75;;
31378;SDS011;61664;48.112;11.662;2023-04-15T03:45:19;2.67;;;2.33;;
31378;SDS011;61664;48.112;11.662;2023-04-15T03:47:46;2.58;;;2.35;;
31378;SDS011;61664;48.112;11.662;2023-04-15T03:50:14;2.75;;;2.55;;
31378;SDS011;61664;48.112;11.662;2023-04-15T03:52:41;2.28;;;2.08;;
31378;SDS011;61664;48.112;11.662;2023-04-15T03:55:10;3.53;;;2.17;;
31378;SDS011;61664;48.112;11.662;2023-04-15T03:57:37;4.57;;;1.98;;
31378;SDS011;61664;48.112;11.662;2023-04-15T04:00:05;2.95;;;2.65;;
31378;SDS011;61664;48.112;11.662;2023-04-15T04:02:36;5.22;;;2.60;;
31378;SDS011;61664;48.112;11.662;2023-04-15T04:05:04;2.28;;;2.15;;
31378;SDS011;61664;48.112;11.662;2023-04-15T04:07:31;3.65;;;2.45;;
31378;SDS011;61664;48.112;11.662;2023-04-15T04:09:58;3.38;;;2.28;;
31378;SDS011;61664;48.112;11.662;2023-04-15T04:12:25;2.75;;;2.50;;
31378;SDS011;61664;48.112;11.662;2023-04-15T04:14:52;2.55;;;2.28;;
31378;SDS011;61664;48.112;11.662;2023-04-15T04:17:18;1.95;;;1.75;;
31378;SDS011;61664;48.112;11.662;2023-04-15T04:19:46;3.83;;;2.30;;
31378;SDS011;61664;48.112;11.662;2023-04-15T04:22:13;3.42;;;2.33;;
31378;SDS011;61664;48.112;11.662;2023-04-15T04:24:39;2.90;;;2.33;;
31378;SDS011;61664;48.112;11.662;2023-04-15T04:27:06;2.83;;;2.00;;
31378;SDS011;61664;48.112;11.662;2023-04-15T04:29:33;2.10;;;1.90;;
31378;SDS011;61664;48.112;11.662;2023-04-15T04:32:00;3.28;;;2.20;;
31378;SDS011;61664;48.112;11.662;2023-04-15T04:34:27;5.28;;;2.10;;
31378;SDS011;61664;48.112;11.662;2023-04-15T04:36:54;2.90;;;1.48;;
31378;SDS011;61664;48.112;11.662;2023-04-15T04:39:21;2.67;;;2.15;;
31378;SDS011;61664;48.112;11.662;2023-04-15T04:41:48;2.33;;;2.13;;
31378;SDS011;61664;48.112;11.662;2023-04-15T04:44:17;1.77;;;1.67;;
31378;SDS011;61664;48.112;11.662;2023-04-15T04:46:44;2.33;;;2.10;;
31378;SDS011;61664;48.112;11.662;2023-04-15T04:49:11;2.28;;;1.67;;
31378;SDS011;61664;48.112;11.662;2023-04-15T04:51:38;2.60;;;1.75;;
31378;SDS011;61664;48.112;11.662;2023-04-15T04:54:04;2.88;;;1.77;;
31378;SDS011;61664;48.112;11.662;2023-04-15T04:56:31;1.98;;;1.70;;
31378;SDS011;61664;48.112;11.662;2023-04-15T04:58:59;2.17;;;1.80;;
31378;SDS011;61664;48.112;11.662;2023-04-15T05:01:27;2.85;;;2.10;;
31378;SDS011;61664;48.112;11.662;2023-04-15T05:03:54;2.50;;;1.75;;
31378;SDS011;61664;48.112;11.662;2023-04-15T05:06:21;3.05;;;2.08;;
31378;SDS011;61664;48.112;11.662;2023-04-15T05:08:48;5.43;;;1.98;;
31378;SDS011;61664;48.112;11.662;2023-04-15T05:11:16;3.47;;;1.88;;
31378;SDS011;61664;48.112;11.662;2023-04-15T05:13:43;3.13;;;1.63;;
31378;SDS011;61664;48.112;11.662;2023-04-15T05:16:09;2.25;;;2.05;;
31378;SDS011;61664;48.112;11.662;2023-04-15T05:18:36;5.53;;;1.83;;
31378;SDS011;61664;48.112;11.662;2023-04-15T05:21:03;1.95;;;1.77;;
31378;SDS011;61664;48.112;11.662;2023-04-15T05:23:31;5.82;;;1.98;;
31378;SDS011;61664;48.112;11.662;2023-04-15T05:25:58;2.28;;;1.80;;
31378;SDS011;61664;48.112;11.662;2023-04-15T05:28:24;3.40;;;2.10;;
31378;SDS011;61664;48.112;11.662;2023-04-15T05:30:52;2.92;;;1.95;;
31378;SDS011;61664;48.112;11.662;2023-04-15T05:33:19;2.45;;;1.73;;
31378;SDS011;61664;48.112;11.662;2023-04-15T05:35:46;3.13;;;2.10;;
31378;SDS011;61664;48.112;11.662;2023-04-15T05:38:13;5.45;;;2.50;;
31378;SDS011;61664;48.112;11.662;2023-04-15T05:40:40;4.03;;;1.98;;
31378;SDS011;61664;48.112;11.662;2023-04-15T05:43:07;3.25;;;1.60;;
31378;SDS011;61664;48.112;11.662;2023-04-15T05:45:34;3.63;;;2.03;;
31378;SDS011;61664;48.112;11.662;2023-04-15T05:48:01;3.92;;;1.90;;
31378;SDS011;61664;48.112;11.662;2023-04-15T05:50:28;3.30;;;1.70;;
31378;SDS011;61664;48.112;11.662;2023-04-15T05:52:55;3.15;;;1.92;;
31378;SDS011;61664;48.112;11.662;2023-04-15T05:55:22;1.40;;;1.30;;
31378;SDS011;61664;48.112;11.662;2023-04-15T05:57:49;2.33;;;2.13;;
31378;SDS011;61664;48.112;11.662;2023-04-15T06:00:16;2.60;;;1.60;;
31378;SDS011;61664;48.112;11.662;2023-04-15T06:02:43;2.92;;;1.95;;
31378;SDS011;61664;48.112;11.662;2023-04-15T06:05:10;2.22;;;1.48;;
31378;SDS011;61664;48.112;11.662;2023-04-15T06:07:37;2.88;;;1.50;;
31378;SDS011;61664;48.112;11.662;2023-04-15T06:10:04;2.63;;;1.42;;
31378;SDS011;61664;48.112;11.662;2023-04-15T06:12:33;4.07;;;2.53;;
31378;SDS011;61664;48.112;11.662;2023-04-15T06:14:59;2.58;;;2.15;;
31378;SDS011;61664;48.112;11.662;2023-04-15T06:17:27;2.40;;;2.20;;
31378;SDS011;61664;48.112;11.662;2023-04-15T06:19:54;3.22;;;1.77;;
31378;SDS011;61664;48.112;11.662;2023-04-15T06:22:21;4.30;;;1.88;;
31378;SDS011;61664;48.112;11.662;2023-04-15T06:24:49;2.30;;;1.20;;
31378;SDS011;61664;48.112;11.662;2023-04-15T06:27:16;1.95;;;1.58;;
31378;SDS011;61664;48.112;11.662;2023-04-15T06:29:44;1.73;;;1.60;;
31378;SDS011;61664;48.112;11.662;2023-04-15T06:32:10;3.85;;;1.90;;
31378;SDS011;61664;48.112;11.662;2023-04-15T06:34:38;1.55;;;1.40;;
31378;SDS011;61664;48.112;11.662;2023-04-15T06:37:05;4.40;;;1.67;;
31378;SDS011;61664;48.112;11.662;2023-04-15T06:39:32;3.63;;;1.67;;
31378;SDS011;61664;48.112;11.662;2023-04-15T06:41:59;2.22;;;1.27;;
31378;SDS011;61664;48.112;11.662;2023-04-15T06:44:26;2.42;;;1.42;;
31378;SDS011;61664;48.112;11.662;2023-04-15T06:46:54;1.85;;;1.30;;
31378;SDS011;61664;48.112;11.662;2023-04-15T06:49:21;2.00;;;1.40;;
31378;SDS011;61664;48.112;11.662;2023-04-15T06:51:48;1.95;;;1.30;;
31378;SDS011;61664;48.112;11.662;2023-04-15T06:54:16;4.88;;;1.60;;
31378;SDS011;61664;48.112;11.662;2023-04-15T06:56:43;2.00;;;1.52;;
31378;SDS011;61664;48.112;11.662;2023-04-15T06:59:10;1.23;;;1.10;;
31378;SDS011;61664;48.112;11.662;2023-04-15T07:01:38;2.15;;;1.05;;
31378;SDS011;61664;48.112;11.662;2023-04-15T07:04:07;2.20;;;1.60;;
31378;SDS011;61664;48.112;11.662;2023-04-15T07:06:34;2.80;;;1.50;;
31378;SDS011;61664;48.112;11.662;2023-04-15T07:09:01;3.25;;;1.92;;
31378;SDS011;61664;48.112;11.662;2023-04-15T07:11:30;2.05;;;1.85;;
31378;SDS011;61664;48.112;11.662;2023-04-15T07:13:57;1.48;;;1.35;;
31378;SDS011;61664;48.112;11.662;2023-04-15T07:16:24;2.10;;;1.30;;
31378;SDS011;61664;48.112;11.662;2023-04-15T07:18:54;2.08;;;1.20;;
31378;SDS011;61664;48.112;11.662;2023-04-15T07:21:23;2.22;;;1.45;;
31378;SDS011;61664;48.112;11.662;2023-04-15T07:23:50;2.70;;;1.27;;
31378;SDS011;61664;48.112;11.662;2023-04-15T07:26:17;1.75;;;1.45;;
31378;SDS011;61664;48.112;11.662;2023-04-15T07:28:44;2.45;;;0.82;;
31378;SDS011;61664;48.112;11.662;2023-04-15T07:31:12;3.30;;;1.05;;
31378;SDS011;61664;48.112;11.662;2023-04-15T07:33:40;4.70;;;1.10;;
31378;SDS011;61664;48.112;11.662;2023-04-15T07:36:07;2.75;;;1.30;;
31378;SDS011;61664;48.112;11.662;2023-04-15T07:38:34;2.38;;;1.20;;
31378;SDS011;61664;48.112;11.662;2023-04-15T07:41:01;2.28;;;1.40;;
31378;SDS011;61664;48.112;11.662;2023-04-15T07:43:28;3.92;;;1.33;;
31378;SDS011;61664;48.112;11.662;2023-04-15T07:45:55;1.30;;;1.20;;
31378;SDS011;61664;48.112;11.662;2023-04-15T07:48:22;2.65;;;1.60;;
31378;SDS011;61664;48.112;11.662;2023-04-15T07:50:49;2.65;;;1.85;;
31378;SDS011;61664;48.112;11.662;2023-04-15T07:53:16;2.97;;;1.02;;
31378;SDS011;61664;48.112;11.662;2023-04-15T07:55:43;2.05;;;1.63;;
31378;SDS011;61664;48.112;11.662;2023-04-15T07:58:09;2.85;;;1.27;;
31378;SDS011;61664;48.112;11.662;2023-04-15T08:00:36;2.70;;;1.10;;
31378;SDS011;61664;48.112;11.662;2023-04-15T08:03:03;3.03;;;1.38;;
31378;SDS011;61664;48.112;11.662;2023-04-15T08:05:31;2.40;;;1.30;;
31378;SDS011;61664;48.112;11.662;2023-04-15T08:07:58;2.22;;;1.20;;
31378;SDS011;61664;48.112;11.662;2023-04-15T08:10:25;1.25;;;1.17;;
31378;SDS011;61664;48.112;11.662;2023-04-15T08:12:53;1.50;;;1.20;;
31378;SDS011;61664;48.112;11.662;2023-04-15T08:15:20;3.97;;;1.40;;
31378;SDS011;61664;48.112;11.662;2023-04-15T08:17:47;0.98;;;0.88;;
31378;SDS011;61664;48.112;11.662;2023-04-15T08:20:14;3.53;;;1.92;;
31378;SDS011;61664;48.112;11.662;2023-04-15T08:22:41;4.93;;;1.90;;
31378;SDS011;61664;48.112;11.662;2023-04-15T08:25:08;1.98;;;1.85;;
31378;SDS011;61664;48.112;11.662;2023-04-15T08:27:35;1.88;;;1.67;;
31378;SDS011;61664;48.112;11.662;2023-04-15T08:30:02;2.00;;;1.65;;
31378;SDS011;61664;48.112;11.662;2023-04-15T08:32:30;5.00;;;1.27;;
31378;SDS011;61664;48.112;11.662;2023-04-15T08:34:57;2.17;;;1.50;;
31378;SDS011;61664;48.112;11.662;2023-04-15T08:37:24;5.07;;;1.83;;
31378;SDS011;61664;48.112;11.662;2023-04-15T08:39:52;2.60;;;2.38;;
31378;SDS011;61664;48.112;11.662;2023-04-15T08:42:22;3.85;;;2.15;;
31378;SDS011;61664;48.112;11.662;2023-04-15T08:44:58;3.00;;;2.10;;
31378;SDS011;61664;48.112;11.662;2023-04-15T08:47:28;1.92;;;1.60;;
31378;SDS011;61664;48.112;11.662;2023-04-15T08:49:59;1.92;;;1.63;;
31378;SDS011;61664;48.112;11.662;2023-04-15T08:52:30;2.40;;;2.15;;
31378;SDS011;61664;48.112;11.662;2023-04-15T08:54:57;4.63;;;2.13;;
31378;SDS011;61664;48.112;11.662;2023-04-15T08:57:27;3.22;;;2.65;;
31378;SDS011;61664;48.112;11.662;2023-04-15T08:59:55;5.20;;;4.70;;
31378;SDS011;61664;48.112;11.662;2023-04-15T09:02:23;4.55;;;3.25;;
31378;SDS011;61664;48.112;11.662;2023-04-15T09:04:52;2.65;;;2.40;;
31378;SDS011;61664;48.112;11.662;2023-04-15T09:07:19;2.67;;;2.22;;
31378;SDS011;61664;48.112;11.662;2023-04-15T09:09:47;2.70;;;2.47;;
31378;SDS011;61664;48.112;11.662;2023-04-15T09:12:14;2.95;;;2.72;;
31378;SDS011;61664;48.112;11.662;2023-04-15T09:14:44;2.17;;;1.70;;
31378;SDS011;61664;48.112;11.662;2023-04-15T09:17:12;3.75;;;1.60;;
31378;SDS011;61664;48.112;11.662;2023-04-15T09:19:44;5.00;;;1.88;;
31378;SDS011;61664;48.112;11.662;2023-04-15T09:22:11;2.40;;;1.80;;
31378;SDS011;61664;48.112;11.662;2023-04-15T09:24:39;5.00;;;1.48;;
31378;SDS011;61664;48.112;11.662;2023-04-15T09:27:07;2.55;;;2.00;;
31378;SDS011;61664;48.112;11.662;2023-04-15T09:29:34;2.42;;;1.90;;
31378;SDS011;61664;48.112;11.662;2023-04-15T09:32:12;2.95;;;2.45;;
31378;SDS011;61664;48.112;11.662;2023-04-15T09:34:41;2.08;;;1.67;;
31378;SDS011;61664;48.112;11.662;2023-04-15T09:37:09;2.97;;;2.10;;
31378;SDS011;61664;48.112;11.662;2023-04-15T09:39:54;3.38;;;2.30;;
31378;SDS011;61664;48.112;11.662;2023-04-15T09:42:21;4.07;;;3.63;;
31378;SDS011;61664;48.112;11.662;2023-04-15T09:44:52;5.05;;;4.57;;
31378;SDS011;61664;48.112;11.662;2023-04-15T09:47:31;3.22;;;2.90;;
31378;SDS011;61664;48.112;11.662;2023-04-15T09:49:58;3.92;;;2.38;;
31378;SDS011;61664;48.112;11.662;2023-04-15T09:52:27;3.47;;;3.03;;
31378;SDS011;61664;48.112;11.662;2023-04-15T09:54:56;6.55;;;3.47;;
31378;SDS011;61664;48.112;11.662;2023-04-15T09:57:31;9.43;;;6.30;;
31378;SDS011;61664;48.112;11.662;2023-04-15T10:00:05;5.13;;;3.65;;
31378;SDS011;61664;48.112;11.662;2023-04-15T10:02:37;3.38;;;3.08;;
31378;SDS011;61664;48.112;11.662;2023-04-15T10:05:10;2.88;;;2.67;;
31378;SDS011;61664;48.112;11.662;2023-04-15T10:07:41;6.38;;;2.78;;
31378;SDS011;61664;48.112;11.662;2023-04-15T10:10:09;2.90;;;2.70;;
31378;SDS011;61664;48.112;11.662;2023-04-15T10:12:37;3.53;;;2.92;;
31378;SDS011;61664;48.112;11.662;2023-04-15T10:15:06;3.28;;;3.00;;
31378;SDS011;61664;48.112;11.662;2023-04-15T10:17:43;3.58;;;3.28;;
31378;SDS011;61664;48.112;11.662;2023-04-15T10:20:12;5.23;;;3.77;;
31378;SDS011;61664;48.112;11.662;2023-04-15T10:22:44;3.05;;;2.85;;
31378;SDS011;61664;48.112;11.662;2023-04-15T10:25:12;3.63;;;3.33;;
31378;SDS011;61664;48.112;11.662;2023-04-15T10:27:41;6.00;;;3.55;;
31378;SDS011;61664;48.112;11.662;2023-04-15T10:30:09;4.25;;;3.50;;
31378;SDS011;61664;48.112;11.662;2023-04-15T10:32:37;4.15;;;3.75;;
31378;SDS011;61664;48.112;11.662;2023-04-15T10:35:05;6.20;;;4.00;;
31378;SDS011;61664;48.112;11.662;2023-04-15T10:37:35;4.70;;;3.35;;
31378;SDS011;61664;48.112;11.662;2023-04-15T10:42:54;3.97;;;2.75;;
31378;SDS011;61664;48.112;11.662;2023-04-15T10:45:21;3.45;;;3.10;;
31378;SDS011;61664;48.112;11.662;2023-04-15T10:48:00;4.85;;;4.45;;
31378;SDS011;61664;48.112;11.662;2023-04-15T10:50:30;3.33;;;3.03;;
31378;SDS011;61664;48.112;11.662;2023-04-15T10:52:58;4.30;;;3.30;;
31378;SDS011;61664;48.112;11.662;2023-04-15T10:57:59;3.20;;;2.90;;
31378;SDS011;61664;48.112;11.662;2023-04-15T11:00:28;4.22;;;3.00;;
31378;SDS011;61664;48.112;11.662;2023-04-15T11:02:58;2.85;;;2.58;;
31378;SDS011;61664;48.112;11.662;2023-04-15T11:08:04;7.40;;;3.40;;
31378;SDS011;61664;48.112;11.662;2023-04-15T11:12:59;2.55;;;2.35;;
31378;SDS011;61664;48.112;11.662;2023-04-15T11:15:41;2.97;;;2.78;;
31378;SDS011;61664;48.112;11.662;2023-04-15T11:18:13;4.65;;;3.00;;
31378;SDS011;61664;48.112;11.662;2023-04-15T11:20:49;2.88;;;2.50;;
31378;SDS011;61664;48.112;11.662;2023-04-15T11:23:28;3.40;;;2.78;;
31378;SDS011;61664;48.112;11.662;2023-04-15T11:25:55;2.70;;;2.50;;
31378;SDS011;61664;48.112;11.662;2023-04-15T11:28:25;8.23;;;4.90;;
31378;SDS011;61664;48.112;11.662;2023-04-15T11:30:55;4.22;;;3.83;;
31378;SDS011;61664;48.112;11.662;2023-04-15T11:33:23;3.35;;;3.05;;
31378;SDS011;61664;48.112;11.662;2023-04-15T11:35:51;3.75;;;2.88;;
31378;SDS011;61664;48.112;11.662;2023-04-15T11:38:20;3.10;;;2.80;;
31378;SDS011;61664;48.112;11.662;2023-04-15T11:40:47;5.15;;;3.85;;
31378;SDS011;61664;48.112;11.662;2023-04-15T11:43:18;2.97;;;2.70;;
31378;SDS011;61664;48.112;11.662;2023-04-15T11:48:23;3.03;;;2.83;;
31378;SDS011;61664;48.112;11.662;2023-04-15T11:50:59;3.60;;;3.00;;
31378;SDS011;61664;48.112;11.662;2023-04-15T11:53:48;3.42;;;3.15;;
31378;SDS011;61664;48.112;11.662;2023-04-15T11:56:17;3.40;;;3.08;;
31378;SDS011;61664;48.112;11.662;2023-04-15T11:58:47;3.00;;;2.80;;
31378;SDS011;61664;48.112;11.662;2023-04-15T12:01:19;3.95;;;3.38;;
31378;SDS011;61664;48.112;11.662;2023-04-15T12:03:46;4.95;;;3.42;;
31378;SDS011;61664;48.112;11.662;2023-04-15T12:11:36;4.55;;;4.13;;
31378;SDS011;61664;48.112;11.662;2023-04-15T12:14:26;3.60;;;3.25;;
31378;SDS011;61664;48.112;11.662;2023-04-15T12:19:35;5.22;;;3.83;;
31378;SDS011;61664;48.112;11.662;2023-04-15T12:22:05;3.70;;;3.40;;
31378;SDS011;61664;48.112;11.662;2023-04-15T12:24:37;3.45;;;3.15;;
31378;SDS011;61664;48.112;11.662;2023-04-15T12:27:05;4.00;;;2.95;;
31378;SDS011;61664;48.112;11.662;2023-04-15T12:29:34;3.65;;;3.17;;
31378;SDS011;61664;48.112;11.662;2023-04-15T12:34:37;7.60;;;4.90;;
31378;SDS011;61664;48.112;11.662;2023-04-15T12:37:06;3.10;;;2.90;;
31378;SDS011;61664;48.112;11.662;2023-04-15T12:39:36;3.42;;;3.13;;
31378;SDS011;61664;48.112;11.662;2023-04-15T12:42:06;2.97;;;2.78;;
31378;SDS011;61664;48.112;11.662;2023-04-15T12:44:34;3.20;;;3.00;;
31378;SDS011;61664;48.112;11.662;2023-04-15T12:47:02;5.03;;;3.22;;
31378;SDS011;61664;48.112;11.662;2023-04-15T12:49:30;3.63;;;3.05;;
31378;SDS011;61664;48.112;11.662;2023-04-15T12:51:58;3.50;;;3.20;;
31378;SDS011;61664;48.112;11.662;2023-04-15T12:54:27;4.07;;;3.10;;
31378;SDS011;61664;48.112;11.662;2023-04-15T12:56:56;3.17;;;2.88;;
31378;SDS011;61664;48.112;11.662;2023-04-15T12:59:24;3.58;;;2.95;;
31378;SDS011;61664;48.112;11.662;2023-04-15T13:01:51;3.20;;;2.25;;
31378;SDS011;61664;48.112;11.662;2023-04-15T13:04:19;3.78;;;2.80;;
31378;SDS011;61664;48.112;11.662;2023-04-15T13:06:47;3.33;;;2.45;;
31378;SDS011;61664;48.112;11.662;2023-04-15T13:09:14;3.42;;;3.17;;
31378;SDS011;61664;48.112;11.662;2023-04-15T13:11:41;4.38;;;2.58;;
31378;SDS011;61664;48.112;11.662;2023-04-15T13:14:09;2.50;;;2.30;;
31378;SDS011;61664;48.112;11.662;2023-04-15T13:16:38;3.03;;;2.35;;
31378;SDS011;61664;48.112;11.662;2023-04-15T13:19:05;2.10;;;2.00;;
31378;SDS011;61664;48.112;11.662;2023-04-15T13:21:32;2.22;;;2.03;;
31378;SDS011;61664;48.112;11.662;2023-04-15T13:24:01;1.80;;;1.70;;
31378;SDS011;61664;48.112;11.662;2023-04-15T13:26:29;2.38;;;2.17;;
31378;SDS011;61664;48.112;11.662;2023-04-15T13:28:57;3.22;;;2.00;;
31378;SDS011;61664;48.112;11.662;2023-04-15T13:31:24;2.40;;;2.20;;
31378;SDS011;61664;48.112;11.662;2023-04-15T13:33:52;3.33;;;2.63;;
31378;SDS011;61664;48.112;11.662;2023-04-15T13:36:19;3.42;;;2.60;;
31378;SDS011;61664;48.112;11.662;2023-04-15T13:38:46;3.25;;;2.83;;
31378;SDS011;61664;48.112;11.662;2023-04-15T13:41:16;4.10;;;2.47;;
31378;SDS011;61664;48.112;11.662;2023-04-15T13:43:43;5.32;;;2.65;;
31378;SDS011;61664;48.112;11.662;2023-04-15T13:46:10;2.65;;;2.45;;
31378;SDS011;61664;48.112;11.662;2023-04-15T13:48:38;2.83;;;2.22;;
31378;SDS011;61664;48.112;11.662;2023-04-15T13:51:05;3.13;;;2.88;;
31378;SDS011;61664;48.112;11.662;2023-04-15T13:53:32;3.20;;;2.55;;
31378;SDS011;61664;48.112;11.662;2023-04-15T13:56:07;3.00;;;2.70;;
31378;SDS011;61664;48.112;11.662;2023-04-15T13:58:36;3.08;;;2.60;;
31378;SDS011;61664;48.112;11.662;2023-04-15T14:01:04;4.40;;;3.22;;
31378;SDS011;61664;48.112;11.662;2023-04-15T14:03:35;4.30;;;3.33;;
31378;SDS011;61664;48.112;11.662;2023-04-15T14:06:03;5.05;;;4.32;;
31378;SDS011;61664;48.112;11.662;2023-04-15T14:08:31;4.22;;;3.70;;
31378;SDS011;61664;48.112;11.662;2023-04-15T14:10:58;3.25;;;2.97;;
31378;SDS011;61664;48.112;11.662;2023-04-15T14:13:26;3.10;;;2.70;;
31378;SDS011;61664;48.112;11.662;2023-04-15T14:15:53;2.28;;;2.08;;
31378;SDS011;61664;48.112;11.662;2023-04-15T14:18:19;3.17;;;2.88;;
31378;SDS011;61664;48.112;11.662;2023-04-15T14:20:46;2.25;;;2.03;;
31378;SDS011;61664;48.112;11.662;2023-04-15T14:23:13;1.92;;;1.75;;
31378;SDS011;61664;48.112;11.662;2023-04-15T14:25:40;3.28;;;2.13;;
31378;SDS011;61664;48.112;11.662;2023-04-15T14:28:07;2.67;;;2.47;;
31378;SDS011;61664;48.112;11.662;2023-04-15T14:30:34;2.28;;;2.08;;
31378;SDS011;61664;48.112;11.662;2023-04-15T14:33:01;2.22;;;2.13;;
31378;SDS011;61664;48.112;11.662;2023-04-15T14:35:29;2.55;;;2.35;;
31378;SDS011;61664;48.112;11.662;2023-04-15T14:37:56;2.58;;;2.30;;
31378;SDS011;61664;48.112;11.662;2023-04-15T14:40:23;2.22;;;1.92;;
31378;SDS011;61664;48.112;11.662;2023-04-15T14:42:50;3.95;;;1.95;;
31378;SDS011;61664;48.112;11.662;2023-04-15T14:45:17;2.65;;;1.80;;
31378;SDS011;61664;48.112;11.662;2023-04-15T14:47:45;2.03;;;1.92;;
31378;SDS011;61664;48.112;11.662;2023-04-15T14:50:12;2.50;;;2.13;;
31378;SDS011;61664;48.112;11.662;2023-04-15T14:52:39;2.10;;;2.00;;
31378;SDS011;61664;48.112;11.662;2023-04-15T14:55:07;2.10;;;2.00;;
31378;SDS011;61664;48.112;11.662;2023-04-15T14:57:38;2.75;;;2.25;;
31378;SDS011;61664;48.112;11.662;2023-04-15T15:00:08;2.25;;;2.05;;
31378;SDS011;61664;48.112;11.662;2023-04-15T15:02:39;2.40;;;2.20;;
31378;SDS011;61664;48.112;11.662;2023-04-15T15:05:08;2.03;;;1.92;;